CheckWX is a tool to help pilots better visualize weather data.  It is not intended as a substitute for an official pre-flight weather briefing.

00:41:27 UTC

FHAW METAR
Ascension Aux Af Airport
Georgetown, Saint Helena
Current

8 hours ago

FHAW 261650Z 14012KT 9999 BKN018 BKN043 29/24 Q1010 WHT TEMPO FEW018 BLU
Observed
Mar-26 @ 16:50 UTC
Wind
  • 140° at 12 KTS
Visibility
10,000+ meters
Flight Rules
MVFR
Cloud Levels
  • Broken at 1,800' AGL
  • Broken at 4,300' AGL
Temperature
29°C / 84°F
Dewpoint
24°C / 75°F
Humidity
74%
Altimeter
29.82" Hg
Pressure
1009.92 hPa
Previous

8 hours ago

FHAW 261650Z 14012KT 9999 BKN018 BKN043 29/24 Q1010 TEMPO FEW018
Observed
Mar-26 @ 16:50 UTC
Wind
  • 140° at 12 KTS
Visibility
10,000+ meters
Flight Rules
MVFR
Cloud Levels
  • Broken at 1,800' AGL
  • Broken at 4,300' AGL
Temperature
29°C / 84°F
Dewpoint
24°C / 75°F
Humidity
74%
Altimeter
29.82" Hg
Pressure
1009.92 hPa
Previous

9 hours ago

FHAW 261550Z 15013KT 9999 BKN018 BKN042 29/23 Q1010 WHT TEMPO FEW018 BLU
Observed
Mar-26 @ 15:50 UTC
Wind
  • 150° at 13 KTS
Visibility
10,000+ meters
Flight Rules
MVFR
Cloud Levels
  • Broken at 1,800' AGL
  • Broken at 4,200' AGL
Temperature
29°C / 84°F
Dewpoint
23°C / 73°F
Humidity
70%
Altimeter
29.82" Hg
Pressure
1009.92 hPa